createdAt,value
2022-11-24T00:00:31.413Z,7.58
2022-11-24T00:02:58.182Z,7.50
2022-11-24T00:05:24.671Z,7.45
2022-11-24T00:07:51.155Z,7.42
2022-11-24T00:10:17.652Z,7.41
2022-11-24T00:12:44.038Z,7.42
2022-11-24T00:15:10.679Z,7.26
2022-11-24T00:17:37.058Z,7.42
2022-11-24T00:20:03.692Z,7.38
2022-11-24T00:22:30.712Z,7.38
2022-11-24T00:24:57.104Z,7.44
2022-11-24T00:27:23.479Z,7.47
2022-11-24T00:29:49.891Z,7.49
2022-11-24T00:32:16.243Z,7.54
2022-11-24T00:34:42.611Z,7.54
2022-11-24T00:37:09.018Z,7.60
2022-11-24T00:39:35.404Z,7.70
2022-11-24T00:42:02.005Z,7.67
2022-11-24T00:44:28.398Z,7.69
2022-11-24T00:46:54.854Z,7.67
2022-11-24T00:49:21.309Z,7.65
2022-11-24T00:51:47.796Z,7.66
2022-11-24T00:54:14.263Z,7.65
2022-11-24T00:56:40.703Z,7.65
2022-11-24T00:59:07.284Z,7.63
2022-11-24T01:01:34.031Z,7.66
2022-11-24T01:04:03.760Z,7.65
2022-11-24T01:06:30.755Z,7.67
2022-11-24T01:08:57.570Z,7.63
2022-11-24T01:11:30.084Z,7.63
2022-11-24T01:13:58.884Z,7.66
2022-11-24T01:16:29.181Z,7.59
2022-11-24T01:18:55.972Z,7.62
2022-11-24T01:21:22.731Z,7.63
2022-11-24T01:23:49.193Z,7.58
2022-11-24T01:26:18.597Z,7.65
2022-11-24T01:28:47.567Z,7.65
2022-11-24T01:31:14.719Z,7.67
2022-11-24T01:33:41.243Z,7.60
2022-11-24T01:36:07.696Z,7.60
2022-11-24T01:38:34.156Z,7.65
2022-11-24T01:41:06.787Z,7.61
2022-11-24T01:43:33.607Z,7.63
2022-11-24T01:46:15.125Z,7.59
2022-11-24T01:48:44.684Z,7.56
2022-11-24T01:51:13.867Z,7.63
2022-11-24T01:53:42.199Z,7.58
2022-11-24T01:56:08.923Z,7.57
2022-11-24T01:58:36.210Z,7.60
2022-11-24T02:01:02.881Z,7.58
2022-11-24T02:03:34.547Z,7.57
2022-11-24T02:06:13.125Z,7.60
2022-11-24T02:08:47.171Z,7.61
2022-11-24T02:11:13.604Z,7.58
2022-11-24T02:13:41.142Z,7.61
2022-11-24T02:16:08.753Z,7.63
2022-11-24T02:18:37.010Z,7.67
2022-11-24T02:21:03.526Z,7.63
2022-11-24T02:23:45.085Z,7.66
2022-11-24T02:26:19.576Z,7.67
2022-11-24T02:28:46.240Z,7.70
2022-11-24T02:31:12.948Z,7.67
2022-11-24T02:33:39.722Z,7.68
2022-11-24T02:36:06.479Z,7.67
2022-11-24T02:38:34.500Z,7.67
2022-11-24T02:41:09.216Z,7.71
2022-11-24T02:43:39.799Z,7.70
2022-11-24T02:46:06.816Z,7.68
2022-11-24T02:48:33.533Z,7.71
2022-11-24T02:50:59.927Z,7.67
2022-11-24T02:53:26.300Z,7.68
2022-11-24T02:55:53.184Z,7.73
2022-11-24T02:58:19.612Z,7.77
2022-11-24T03:00:46.081Z,7.80
2022-11-24T03:03:12.648Z,7.74
2022-11-24T03:05:39.132Z,7.75
2022-11-24T03:08:05.639Z,7.82
2022-11-24T03:10:32.313Z,7.87
2022-11-24T03:12:58.710Z,7.84
2022-11-24T03:15:25.133Z,7.86
2022-11-24T03:17:54.475Z,7.86
2022-11-24T03:20:20.946Z,7.85
2022-11-24T03:22:47.354Z,7.91
2022-11-24T03:25:13.755Z,7.87
2022-11-24T03:27:40.163Z,7.96
2022-11-24T03:30:07.577Z,7.91
2022-11-24T03:32:34.021Z,7.96
2022-11-24T03:35:00.386Z,7.95
2022-11-24T03:37:26.790Z,7.97
2022-11-24T03:39:53.181Z,8.00
2022-11-24T03:42:19.560Z,8.02
2022-11-24T03:44:45.928Z,8.02
2022-11-24T03:47:12.502Z,8.04
2022-11-24T03:49:39.039Z,8.07
2022-11-24T03:52:08.190Z,8.07
2022-11-24T03:54:35.471Z,8.10
2022-11-24T03:57:02.085Z,8.08
2022-11-24T03:59:28.454Z,8.10
2022-11-24T04:01:55.034Z,8.06
2022-11-24T04:04:21.448Z,8.07
2022-11-24T04:06:47.826Z,8.08
2022-11-24T04:09:14.280Z,8.05
2022-11-24T04:12:06.843Z,8.09
2022-11-24T04:14:33.481Z,8.14
2022-11-24T04:17:00.117Z,8.10
2022-11-24T04:19:26.634Z,8.12
2022-11-24T04:21:53.095Z,8.11
2022-11-24T04:24:19.453Z,8.10
2022-11-24T04:26:45.823Z,8.15
2022-11-24T04:29:12.261Z,8.12
2022-11-24T04:31:38.722Z,8.15
2022-11-24T04:34:05.158Z,8.17
2022-11-24T04:36:31.594Z,8.21
2022-11-24T04:39:23.333Z,8.15
2022-11-24T04:41:44.406Z,8.17
2022-11-24T04:44:10.775Z,8.19
2022-11-24T04:46:37.174Z,8.21
2022-11-24T04:49:03.603Z,8.16
2022-11-24T04:51:29.989Z,8.16
2022-11-24T04:53:56.428Z,8.20
2022-11-24T04:56:23.082Z,8.23
2022-11-24T04:58:49.760Z,8.26
2022-11-24T05:01:16.278Z,8.23
2022-11-24T05:03:42.740Z,8.21
2022-11-24T05:06:09.124Z,8.19
2022-11-24T05:08:35.646Z,8.23
2022-11-24T05:11:06.233Z,8.28
2022-11-24T05:13:32.931Z,8.21
2022-11-24T05:16:00.196Z,8.25
2022-11-24T05:18:26.678Z,8.20
2022-11-24T05:20:53.041Z,8.30
2022-11-24T05:23:19.436Z,8.31
2022-11-24T05:25:47.734Z,8.24
2022-11-24T05:28:14.491Z,8.28
2022-11-24T05:30:42.012Z,8.25
2022-11-24T05:33:12.537Z,8.28
2022-11-24T05:35:38.931Z,8.30
2022-11-24T05:38:05.303Z,8.25
2022-11-24T05:40:31.749Z,8.31
2022-11-24T05:42:58.208Z,8.27
2022-11-24T05:45:24.701Z,8.30
2022-11-24T05:47:51.511Z,8.32
2022-11-24T05:50:20.181Z,8.28
2022-11-24T05:52:46.987Z,8.30
2022-11-24T05:55:19.342Z,8.29
2022-11-24T05:57:45.795Z,8.38
2022-11-24T06:00:13.189Z,8.36
2022-11-24T06:02:39.783Z,8.37
2022-11-24T06:05:06.477Z,8.37
2022-11-24T06:07:32.940Z,8.34
2022-11-24T06:09:59.417Z,8.28
2022-11-24T06:12:25.835Z,8.31
2022-11-24T06:14:52.447Z,8.35
2022-11-24T06:17:19.022Z,8.32
2022-11-24T06:19:47.852Z,8.30
2022-11-24T06:22:14.359Z,8.35
2022-11-24T06:24:40.802Z,8.34
2022-11-24T06:27:07.672Z,8.36
2022-11-24T06:29:34.104Z,8.35
2022-11-24T06:32:00.607Z,8.33
2022-11-24T06:34:27.077Z,8.39
2022-11-24T06:36:53.451Z,8.39
2022-11-24T06:39:19.834Z,8.37
2022-11-24T06:41:46.289Z,8.37
2022-11-24T06:44:12.696Z,8.40
2022-11-24T06:46:39.128Z,8.39
2022-11-24T06:49:05.654Z,8.40
2022-11-24T06:51:32.046Z,8.36
2022-11-24T06:53:58.492Z,8.39
2022-11-24T06:56:25.158Z,8.38
2022-11-24T06:58:53.146Z,8.36
2022-11-24T07:01:22.002Z,8.41
2022-11-24T07:03:49.243Z,8.35
2022-11-24T07:06:16.260Z,8.39
2022-11-24T07:08:42.846Z,8.40
2022-11-24T07:11:11.568Z,8.37
2022-11-24T07:13:38.040Z,8.41
2022-11-24T07:16:31.211Z,8.37
2022-11-24T07:18:58.312Z,8.41
2022-11-24T07:21:25.997Z,8.41
2022-11-24T07:23:54.195Z,8.42
2022-11-24T07:26:21.218Z,8.45
2022-11-24T07:28:47.852Z,8.44
2022-11-24T07:31:17.234Z,8.46
2022-11-24T07:33:43.738Z,8.48
2022-11-24T07:36:10.118Z,8.48
2022-11-24T07:38:36.791Z,8.46
2022-11-24T07:41:05.999Z,8.53
2022-11-24T07:43:33.456Z,8.54
2022-11-24T07:46:00.218Z,8.53
2022-11-24T07:48:26.979Z,8.53
2022-11-24T07:50:56.036Z,8.62
2022-11-24T07:53:22.867Z,8.60
2022-11-24T07:55:56.780Z,8.56
2022-11-24T07:58:24.769Z,8.61
2022-11-24T08:00:54.050Z,8.58
2022-11-24T08:03:20.635Z,8.56
2022-11-24T08:08:43.743Z,8.54
2022-11-24T08:11:15.629Z,8.57
2022-11-24T08:13:42.514Z,8.54
2022-11-24T08:16:13.836Z,8.67
2022-11-24T08:18:41.185Z,8.64
2022-11-24T08:21:12.323Z,8.70
2022-11-24T08:23:38.907Z,8.72
2022-11-24T08:26:10.925Z,8.73
2022-11-24T08:28:38.108Z,8.73
2022-11-24T08:31:06.687Z,8.74
2022-11-24T08:33:33.125Z,8.74
2022-11-24T08:36:04.522Z,8.80
2022-11-24T08:38:30.963Z,8.80
2022-11-24T08:41:09.710Z,8.80
2022-11-24T08:43:36.679Z,8.78
2022-11-24T08:46:06.173Z,8.82
2022-11-24T08:48:33.296Z,8.80
2022-11-24T08:50:59.848Z,8.78
2022-11-24T08:53:26.341Z,8.77
2022-11-24T08:55:52.805Z,8.78
2022-11-24T08:58:21.955Z,8.81
2022-11-24T09:00:49.887Z,8.81
2022-11-24T09:03:16.389Z,8.80
2022-11-24T09:05:51.713Z,8.85
2022-11-24T09:08:18.919Z,8.88
2022-11-24T09:10:45.647Z,8.88
2022-11-24T09:13:12.181Z,8.88
2022-11-24T09:15:38.596Z,8.91
2022-11-24T09:18:05.442Z,8.86
2022-11-24T09:20:31.904Z,8.91
2022-11-24T09:22:58.340Z,8.92
2022-11-24T09:25:24.764Z,8.95
2022-11-24T09:27:51.232Z,8.96
2022-11-24T09:30:17.934Z,8.95
2022-11-24T09:32:44.341Z,8.96
2022-11-24T09:35:10.760Z,9.00
2022-11-24T09:37:37.271Z,9.02
2022-11-24T09:40:04.028Z,9.03
2022-11-24T09:42:41.247Z,8.99
2022-11-24T09:45:13.820Z,8.99
2022-11-24T09:47:52.266Z,9.03
2022-11-24T09:50:24.872Z,9.03
2022-11-24T09:53:03.677Z,9.04
2022-11-24T09:55:38.409Z,9.04
2022-11-24T09:58:35.700Z,9.10
2022-11-24T10:01:05.781Z,9.11
2022-11-24T10:03:34.677Z,9.10
2022-11-24T10:06:04.370Z,9.10
2022-11-24T10:08:43.172Z,9.14
2022-11-24T10:11:15.714Z,9.13
2022-11-24T10:14:02.909Z,9.16
2022-11-24T10:16:35.377Z,9.21
2022-11-24T10:19:14.312Z,9.27
2022-11-24T10:22:06.963Z,9.27
2022-11-24T10:25:01.324Z,9.31
2022-11-24T10:27:37.980Z,9.23
2022-11-24T10:30:12.935Z,9.28
2022-11-24T10:32:43.065Z,9.29
2022-11-24T10:35:21.618Z,9.30
2022-11-24T10:38:26.631Z,9.34
2022-11-24T10:41:03.276Z,9.32
2022-11-24T10:43:29.823Z,9.34
2022-11-24T10:46:16.777Z,9.40
2022-11-24T10:48:51.060Z,9.42
2022-11-24T10:51:36.896Z,9.43
2022-11-24T10:54:26.900Z,9.48
2022-11-24T10:56:54.299Z,9.51
2022-11-24T10:59:35.928Z,9.54
2022-11-24T11:02:04.017Z,9.48
2022-11-24T11:04:31.669Z,9.44
2022-11-24T11:07:13.778Z,9.54
2022-11-24T11:09:40.256Z,9.54
2022-11-24T11:12:42.040Z,9.59
2022-11-24T11:15:21.207Z,9.62
2022-11-24T11:17:50.391Z,9.63
2022-11-24T11:20:19.631Z,9.69
2022-11-24T11:22:48.110Z,9.80
2022-11-24T11:25:17.929Z,9.88
2022-11-24T11:27:44.324Z,10.03
2022-11-24T11:35:51.173Z,10.09
2022-11-24T11:38:17.788Z,10.13
2022-11-24T11:40:44.340Z,10.13
2022-11-24T11:43:28.948Z,10.12
2022-11-24T11:46:02.204Z,10.10
2022-11-24T11:48:40.820Z,10.11
2022-11-24T11:51:28.086Z,10.10
2022-11-24T11:54:27.008Z,10.07
2022-11-24T11:57:30.691Z,10.11
2022-11-24T12:00:12.688Z,10.11
2022-11-24T12:02:46.105Z,10.11
2022-11-24T12:05:30.480Z,10.06
2022-11-24T12:08:23.507Z,10.09
2022-11-24T12:11:09.626Z,10.11
2022-11-24T12:13:48.151Z,10.25
2022-11-24T12:16:45.591Z,10.31
2022-11-24T12:19:24.056Z,10.29
2022-11-24T12:21:53.468Z,10.36
2022-11-24T12:24:50.560Z,10.26
2022-11-24T12:27:32.184Z,10.31
2022-11-24T12:30:04.484Z,10.32
2022-11-24T12:33:12.235Z,10.43
2022-11-24T12:35:45.683Z,10.45
2022-11-24T12:38:41.010Z,10.50
2022-11-24T12:41:41.794Z,10.49
2022-11-24T12:44:31.000Z,10.44
2022-11-24T12:47:10.028Z,10.39
2022-11-24T12:49:47.250Z,10.35
2022-11-24T12:52:24.372Z,10.47
2022-11-24T12:54:50.836Z,10.52
2022-11-24T12:57:30.847Z,10.62
2022-11-24T13:00:08.439Z,10.68
2022-11-24T13:02:47.057Z,10.74
2022-11-24T13:05:28.026Z,10.71
2022-11-24T13:08:03.553Z,10.69
2022-11-24T13:13:28.987Z,10.64
2022-11-24T13:18:57.287Z,10.52
2022-11-24T13:21:42.879Z,10.41
2022-11-24T13:24:19.267Z,10.50
2022-11-24T13:26:49.006Z,10.58
2022-11-24T13:29:27.827Z,10.52
2022-11-24T13:31:55.489Z,10.57
2022-11-24T13:34:40.276Z,10.53
2022-11-24T13:37:26.833Z,10.57
2022-11-24T13:40:23.225Z,10.51
2022-11-24T13:43:12.842Z,10.42
2022-11-24T13:45:39.247Z,10.40
2022-11-24T13:48:21.650Z,10.44
2022-11-24T13:50:50.607Z,10.38
2022-11-24T13:53:35.575Z,10.42
2022-11-24T13:56:14.922Z,10.49
2022-11-24T13:58:44.196Z,10.48
2022-11-24T14:01:13.579Z,10.43
2022-11-24T14:06:51.303Z,10.51
2022-11-24T14:09:43.672Z,10.62
2022-11-24T14:12:14.187Z,10.67
2022-11-24T14:14:41.465Z,10.68
2022-11-24T14:17:15.630Z,10.65
2022-11-24T14:19:47.242Z,10.64
2022-11-24T14:22:26.904Z,10.61
2022-11-24T14:24:57.842Z,10.61
2022-11-24T14:27:30.625Z,10.69
2022-11-24T14:30:21.062Z,10.72
2022-11-24T14:32:58.075Z,10.76
2022-11-24T14:35:29.187Z,10.75
2022-11-24T14:37:55.943Z,10.69
2022-11-24T14:40:38.722Z,10.70
2022-11-24T14:43:29.978Z,10.60
2022-11-24T14:46:00.377Z,10.56
2022-11-24T14:48:50.646Z,10.58
2022-11-24T14:51:24.127Z,10.54
2022-11-24T14:53:56.786Z,10.47
2022-11-24T14:56:26.233Z,10.49
2022-11-24T14:58:54.134Z,10.46
2022-11-24T15:01:22.346Z,10.44
2022-11-24T15:04:13.056Z,10.45
2022-11-24T15:06:49.732Z,10.40
2022-11-24T15:09:30.556Z,10.35
2022-11-24T15:11:57.398Z,10.36
2022-11-24T15:14:36.246Z,10.31
2022-11-24T15:17:02.957Z,10.29
2022-11-24T15:19:32.903Z,10.30
2022-11-24T15:21:59.523Z,10.24
2022-11-24T15:24:26.018Z,10.17
2022-11-24T15:27:00.114Z,10.17
2022-11-24T15:29:26.723Z,10.09
2022-11-24T15:31:53.303Z,10.10
2022-11-24T15:34:19.842Z,10.03
2022-11-24T15:36:46.259Z,9.98
2022-11-24T15:39:12.797Z,9.89
2022-11-24T15:41:40.520Z,9.85
2022-11-24T15:44:07.800Z,9.90
2022-11-24T15:46:38.057Z,9.80
2022-11-24T15:49:05.141Z,9.77
2022-11-24T15:51:31.594Z,9.74
2022-11-24T15:54:01.165Z,9.74
2022-11-24T15:56:33.272Z,9.72
2022-11-24T15:59:01.031Z,9.64
2022-11-24T16:01:32.932Z,9.62
2022-11-24T16:04:08.606Z,9.54
2022-11-24T16:06:35.030Z,9.48
2022-11-24T16:09:01.643Z,9.36
2022-11-24T16:11:28.068Z,9.39
2022-11-24T16:13:57.291Z,9.25
2022-11-24T16:16:25.154Z,9.26
2022-11-24T16:18:51.691Z,9.23
2022-11-24T16:21:18.149Z,9.10
2022-11-24T16:23:45.553Z,8.99
2022-11-24T16:26:12.140Z,8.86
2022-11-24T16:28:38.708Z,8.85
2022-11-24T16:31:05.215Z,8.82
2022-11-24T16:33:31.726Z,8.69
2022-11-24T16:35:58.574Z,8.62
2022-11-24T16:38:24.983Z,8.54
2022-11-24T16:40:56.190Z,8.50
2022-11-24T16:43:22.647Z,8.39
2022-11-24T16:46:15.569Z,8.29
2022-11-24T16:48:42.043Z,8.34
2022-11-24T16:51:11.929Z,8.15
2022-11-24T16:53:39.218Z,8.20
2022-11-24T16:56:06.394Z,8.22
2022-11-24T16:58:32.807Z,8.19
2022-11-24T17:01:04.300Z,8.08
2022-11-24T17:03:33.404Z,7.88
2022-11-24T17:06:00.783Z,8.06
2022-11-24T17:08:30.641Z,7.99
2022-11-24T17:10:57.046Z,7.97
2022-11-24T17:13:24.162Z,7.93
2022-11-24T17:15:54.169Z,7.88
2022-11-24T17:18:25.406Z,7.76
2022-11-24T17:20:52.273Z,7.69
2022-11-24T17:23:19.628Z,7.66
2022-11-24T17:25:46.197Z,7.67
2022-11-24T17:28:12.679Z,7.54
2022-11-24T17:30:39.081Z,7.46
2022-11-24T17:33:05.754Z,7.49
2022-11-24T17:35:34.111Z,7.51
2022-11-24T17:38:01.187Z,7.41
2022-11-24T17:40:29.276Z,7.32
2022-11-24T17:43:00.235Z,7.41
2022-11-24T17:45:27.947Z,7.23
2022-11-24T17:47:54.959Z,7.32
2022-11-24T17:50:25.668Z,7.19
2022-11-24T17:52:53.170Z,7.25
2022-11-24T17:55:19.576Z,7.14
2022-11-24T17:57:46.119Z,7.11
2022-11-24T18:00:13.209Z,7.06
2022-11-24T18:02:39.681Z,7.19
2022-11-24T18:05:06.375Z,7.07
2022-11-24T18:07:35.293Z,7.01
2022-11-24T18:10:01.717Z,6.88
2022-11-24T18:12:28.108Z,6.87
2022-11-24T18:14:54.509Z,6.83
2022-11-24T18:17:20.891Z,6.76
2022-11-24T18:19:47.339Z,6.90
2022-11-24T18:22:13.711Z,6.72
2022-11-24T18:24:40.472Z,6.68
2022-11-24T18:27:07.015Z,6.68
2022-11-24T18:29:33.423Z,6.74
2022-11-24T18:32:00.248Z,6.57
2022-11-24T18:34:27.059Z,6.66
2022-11-24T18:36:53.473Z,6.47
2022-11-24T18:39:22.013Z,6.56
2022-11-24T18:41:48.448Z,6.38
2022-11-24T18:44:14.899Z,6.51
2022-11-24T18:46:41.372Z,6.35
2022-11-24T18:49:07.894Z,6.32
2022-11-24T18:51:34.356Z,6.37
2022-11-24T18:54:02.850Z,6.25
2022-11-24T18:56:29.440Z,6.44
2022-11-24T18:58:56.357Z,6.31
2022-11-24T19:01:27.809Z,6.38
2022-11-24T19:03:56.222Z,6.20
2022-11-24T19:06:24.354Z,6.25
2022-11-24T19:08:53.328Z,6.18
2022-11-24T19:11:21.554Z,6.18
2022-11-24T19:13:48.987Z,6.25
2022-11-24T19:16:16.995Z,6.28
2022-11-24T19:18:46.474Z,6.16
2022-11-24T19:21:17.692Z,6.16
2022-11-24T19:23:44.125Z,6.04
2022-11-24T19:26:10.634Z,6.20
2022-11-24T19:28:37.066Z,6.06
2022-11-24T19:31:06.021Z,6.13
2022-11-24T19:33:33.026Z,6.11
2022-11-24T19:36:04.784Z,6.13
2022-11-24T19:38:33.071Z,6.11
2022-11-24T19:41:04.015Z,6.14
2022-11-24T19:43:30.840Z,6.01
2022-11-24T19:46:05.647Z,6.03
2022-11-24T19:48:33.136Z,5.96
2022-11-24T19:51:04.851Z,6.06
2022-11-24T19:53:31.984Z,5.85
2022-11-24T19:56:05.177Z,5.83
2022-11-24T19:58:31.963Z,6.02
2022-11-24T20:01:24.656Z,5.78
2022-11-24T20:03:59.032Z,5.87
2022-11-24T20:06:26.980Z,5.84
2022-11-24T20:08:53.411Z,5.79
2022-11-24T20:11:20.941Z,5.68
2022-11-24T20:13:48.369Z,5.76
2022-11-24T20:16:20.873Z,5.64
2022-11-24T20:18:47.791Z,5.66
2022-11-24T20:21:21.905Z,5.58
2022-11-24T20:23:56.890Z,5.63
2022-11-24T20:26:24.708Z,5.53
2022-11-24T20:28:53.074Z,5.59
2022-11-24T20:31:22.324Z,5.44
2022-11-24T20:33:49.032Z,5.50
2022-11-24T20:36:18.276Z,5.56
2022-11-24T20:38:45.622Z,5.53
2022-11-24T20:41:23.681Z,5.40
2022-11-24T20:43:51.229Z,5.35
2022-11-24T20:46:20.146Z,5.29
2022-11-24T20:48:46.560Z,5.26
2022-11-24T20:51:15.796Z,5.45
2022-11-24T20:53:42.271Z,5.44
2022-11-24T20:56:11.704Z,5.35
2022-11-24T20:58:38.617Z,5.39
2022-11-24T21:01:13.946Z,5.33
2022-11-24T21:03:43.344Z,5.25
2022-11-24T21:06:10.868Z,5.28
2022-11-24T21:08:39.116Z,5.26
2022-11-24T21:11:07.057Z,5.22
2022-11-24T21:13:34.602Z,5.30
2022-11-24T21:16:10.514Z,5.20
2022-11-24T21:18:36.943Z,5.26
2022-11-24T21:21:03.418Z,5.19
2022-11-24T21:23:29.844Z,5.39
2022-11-24T21:26:05.121Z,5.23
2022-11-24T21:28:32.855Z,5.27
2022-11-24T21:31:04.765Z,5.25
2022-11-24T21:33:31.267Z,5.27
2022-11-24T21:36:05.439Z,5.33
2022-11-24T21:38:32.234Z,5.28
2022-11-24T21:41:08.833Z,5.35
2022-11-24T21:43:35.830Z,5.35
2022-11-24T21:46:02.933Z,5.43
2022-11-24T21:48:30.730Z,5.38
2022-11-24T21:51:02.684Z,5.32
2022-11-24T21:53:34.679Z,5.42
2022-11-24T21:56:03.422Z,5.37
2022-11-24T21:58:29.846Z,5.32
2022-11-24T22:01:02.906Z,5.31
2022-11-24T22:03:29.469Z,5.35
2022-11-24T22:05:57.190Z,5.45
2022-11-24T22:08:24.536Z,5.48
2022-11-24T22:10:51.206Z,5.47
2022-11-24T22:13:17.629Z,5.50
2022-11-24T22:15:44.068Z,5.52
2022-11-24T22:18:10.620Z,5.57
2022-11-24T22:20:37.085Z,5.55
2022-11-24T22:23:03.606Z,5.59
2022-11-24T22:25:30.033Z,5.68
2022-11-24T22:27:57.915Z,5.60
2022-11-24T22:30:24.352Z,5.70
2022-11-24T22:32:54.083Z,5.63
2022-11-24T22:35:20.857Z,5.65
2022-11-24T22:37:47.273Z,5.66
2022-11-24T22:40:13.682Z,5.58
2022-11-24T22:42:40.087Z,5.73
2022-11-24T22:45:07.282Z,5.74
2022-11-24T22:47:36.535Z,5.67
2022-11-24T22:50:03.100Z,5.64
2022-11-24T22:52:29.523Z,5.65
2022-11-24T22:54:55.958Z,5.58
2022-11-24T22:57:22.328Z,5.67
2022-11-24T22:59:48.791Z,5.62
2022-11-24T23:02:15.174Z,5.63
2022-11-24T23:04:41.607Z,5.72
2022-11-24T23:07:08.182Z,5.71
2022-11-24T23:09:34.612Z,5.65
2022-11-24T23:12:01.051Z,5.66
2022-11-24T23:14:28.772Z,5.63
2022-11-24T23:16:55.261Z,5.65
2022-11-24T23:19:21.638Z,5.73
2022-11-24T23:21:48.244Z,5.73
2022-11-24T23:24:14.636Z,5.67
2022-11-24T23:26:41.531Z,5.69
2022-11-24T23:29:08.432Z,5.66
2022-11-24T23:31:37.703Z,5.73
2022-11-24T23:34:04.449Z,5.68
2022-11-24T23:36:31.362Z,5.72
2022-11-24T23:39:03.067Z,5.68
2022-11-24T23:41:30.118Z,5.68
2022-11-24T23:43:56.510Z,5.72
2022-11-24T23:46:27.217Z,5.71
2022-11-24T23:48:54.518Z,5.67
2022-11-24T23:51:26.737Z,5.67
2022-11-24T23:53:54.036Z,5.75
2022-11-24T23:56:22.558Z,5.73
2022-11-24T23:58:49.300Z,5.64
